TKY1905 LFOB-LPPT
Flight info
| Callsign | TKY1905 |
|---|---|
| Flight time | 2h 4m |
| Altitude | 33000 |
| Route | LGL UT176 ROLEN/N0457F350 UT176 TERPO UN872 ERIGA UZ218 FUJTI DCT BAKUP DCT BATAX DCT INBOM |
| Aircraft | B738/M-SDE2E3FGHIRWXY/LB1 |
Departure
| Time | 2026-04-28 13:38 |
|---|---|
| Airport | Beauvais-Tillé airport (LFOB) |
Arrival
| Time | 2026-04-28 15:42 |
|---|---|
| Airport | Lisbon Humberto Delgado Airport (LPPT) |
| Time | Latitude | Longitude | Altitude | Speed | Heading |
|---|---|---|---|---|---|
| 2026-04-28 13:26 | 49.45900 | 2.11429 | 347 ft | 0 kts | 336° |
| 2026-04-28 13:32 | 49.45908 | 2.11430 | 352 ft | 4 kts | 4° |
| 2026-04-28 13:32 | 49.45914 | 2.11476 | 350 ft | 7 kts | 134° |
| 2026-04-28 13:32 | 49.45864 | 2.11474 | 346 ft | 8 kts | 178° |
| 2026-04-28 13:33 | 49.45803 | 2.11504 | 349 ft | 10 kts | 145° |
| 2026-04-28 13:33 | 49.45752 | 2.11580 | 346 ft | 11 kts | 136° |
| 2026-04-28 13:33 | 49.45684 | 2.11592 | 353 ft | 11 kts | 205° |
| 2026-04-28 13:33 | 49.45616 | 2.11518 | 348 ft | 13 kts | 221° |
| 2026-04-28 13:34 | 49.45540 | 2.11414 | 342 ft | 16 kts | 221° |
| 2026-04-28 13:34 | 49.45437 | 2.11346 | 337 ft | 17 kts | 162° |
| 2026-04-28 13:34 | 49.45353 | 2.11492 | 334 ft | 20 kts | 123° |
| 2026-04-28 13:34 | 49.45275 | 2.11676 | 332 ft | 21 kts | 123° |
| 2026-04-28 13:35 | 49.45193 | 2.11871 | 334 ft | 21 kts | 123° |
| 2026-04-28 13:35 | 49.45108 | 2.12054 | 331 ft | 22 kts | 124° |
| 2026-04-28 13:35 | 49.45039 | 2.12272 | 328 ft | 24 kts | 97° |
| 2026-04-28 13:35 | 49.45026 | 2.12538 | 326 ft | 26 kts | 94° |
| 2026-04-28 13:36 | 49.44976 | 2.12815 | 320 ft | 29 kts | 122° |
| 2026-04-28 13:36 | 49.44861 | 2.13081 | 312 ft | 31 kts | 124° |
| 2026-04-28 13:36 | 49.44751 | 2.13286 | 307 ft | 20 kts | 157° |
| 2026-04-28 13:36 | 49.44652 | 2.13213 | 308 ft | 14 kts | 254° |
| 2026-04-28 13:37 | 49.44663 | 2.13076 | 310 ft | 13 kts | 298° |
| 2026-04-28 13:37 | 49.44735 | 2.12908 | 313 ft | 42 kts | 304° |
| 2026-04-28 13:37 | 49.45031 | 2.12227 | 328 ft | 110 kts | 303° |
| 2026-04-28 13:37 | 49.45571 | 2.10989 | 359 ft | 166 kts | 303° |
| 2026-04-28 13:38 | 49.46221 | 2.09469 | 1004 ft | 166 kts | 301° |
| 2026-04-28 13:38 | 49.46752 | 2.07842 | 1712 ft | 174 kts | 288° |
| 2026-04-28 13:38 | 49.47031 | 2.05995 | 2306 ft | 188 kts | 276° |
| 2026-04-28 13:38 | 49.47096 | 2.03835 | 2566 ft | 215 kts | 269° |
| 2026-04-28 13:39 | 49.47071 | 2.01426 | 2826 ft | 234 kts | 264° |
| 2026-04-28 13:39 | 49.46539 | 1.99039 | 3262 ft | 245 kts | 235° |
| 2026-04-28 13:39 | 49.45220 | 1.97257 | 3636 ft | 261 kts | 210° |
| 2026-04-28 13:39 | 49.43586 | 1.95964 | 4402 ft | 265 kts | 206° |
| 2026-04-28 13:40 | 49.41908 | 1.94740 | 5276 ft | 267 kts | 206° |
| 2026-04-28 13:40 | 49.40225 | 1.93498 | 6063 ft | 270 kts | 206° |
| 2026-04-28 13:40 | 49.38524 | 1.92224 | 6844 ft | 274 kts | 206° |
| 2026-04-28 13:40 | 49.36845 | 1.90809 | 7613 ft | 277 kts | 212° |
| 2026-04-28 13:41 | 49.35223 | 1.89189 | 8372 ft | 280 kts | 214° |
| 2026-04-28 13:41 | 49.33594 | 1.87514 | 9122 ft | 283 kts | 214° |
| 2026-04-28 13:41 | 49.31946 | 1.85824 | 9751 ft | 287 kts | 214° |
| 2026-04-28 13:41 | 49.30299 | 1.84153 | 9998 ft | 288 kts | 213° |
| 2026-04-28 13:42 | 49.28590 | 1.82432 | 10034 ft | 292 kts | 213° |
| 2026-04-28 13:42 | 49.27456 | 1.81297 | 10361 ft | 294 kts | 213° |
| 2026-04-28 13:42 | 49.25178 | 1.79027 | 11320 ft | 299 kts | 213° |
| 2026-04-28 13:42 | 49.23372 | 1.77229 | 11516 ft | 321 kts | 214° |
| 2026-04-28 13:43 | 49.21700 | 1.74835 | 11661 ft | 342 kts | 236° |
| 2026-04-28 13:43 | 49.20863 | 1.72676 | 11819 ft | 354 kts | 241° |
| 2026-04-28 13:43 | 49.19685 | 1.69295 | 12239 ft | 365 kts | 242° |
| 2026-04-28 13:43 | 49.18508 | 1.65830 | 12863 ft | 368 kts | 242° |
| 2026-04-28 13:44 | 49.17322 | 1.62347 | 13534 ft | 371 kts | 242° |
| 2026-04-28 13:44 | 49.16121 | 1.58855 | 14162 ft | 374 kts | 242° |
| 2026-04-28 13:44 | 49.14894 | 1.55317 | 14763 ft | 378 kts | 242° |
| 2026-04-28 13:44 | 49.13651 | 1.51760 | 15372 ft | 381 kts | 242° |
| 2026-04-28 13:45 | 49.12394 | 1.48176 | 15963 ft | 384 kts | 242° |
| 2026-04-28 13:45 | 49.11122 | 1.44564 | 16532 ft | 388 kts | 242° |
| 2026-04-28 13:45 | 49.09839 | 1.40925 | 17083 ft | 391 kts | 242° |
| 2026-04-28 13:45 | 49.08545 | 1.37263 | 17617 ft | 394 kts | 242° |
| 2026-04-28 13:46 | 49.07238 | 1.33565 | 18147 ft | 397 kts | 242° |
| 2026-04-28 13:46 | 49.05920 | 1.29839 | 18664 ft | 400 kts | 242° |
| 2026-04-28 13:46 | 49.04608 | 1.26140 | 19167 ft | 403 kts | 241° |
| 2026-04-28 13:46 | 49.03268 | 1.22367 | 19660 ft | 407 kts | 241° |
| 2026-04-28 13:47 | 49.01933 | 1.18550 | 20148 ft | 410 kts | 242° |
| 2026-04-28 13:47 | 49.00611 | 1.14699 | 20616 ft | 412 kts | 242° |
| 2026-04-28 13:47 | 48.99282 | 1.10803 | 21070 ft | 415 kts | 242° |
| 2026-04-28 13:47 | 48.97944 | 1.06889 | 21510 ft | 418 kts | 242° |
| 2026-04-28 13:48 | 48.96596 | 1.02956 | 21931 ft | 421 kts | 242° |
| 2026-04-28 13:48 | 48.95232 | 0.98994 | 22350 ft | 424 kts | 242° |
| 2026-04-28 13:48 | 48.93861 | 0.95018 | 22763 ft | 426 kts | 242° |
| 2026-04-28 13:48 | 48.92475 | 0.91010 | 23150 ft | 429 kts | 242° |
| 2026-04-28 13:49 | 48.91082 | 0.86986 | 23529 ft | 431 kts | 242° |
| 2026-04-28 13:49 | 48.89677 | 0.82936 | 23902 ft | 434 kts | 242° |
| 2026-04-28 13:49 | 48.88263 | 0.78873 | 24266 ft | 436 kts | 242° |
| 2026-04-28 13:49 | 48.86828 | 0.74794 | 24620 ft | 439 kts | 242° |
| 2026-04-28 13:50 | 48.85379 | 0.70701 | 24967 ft | 441 kts | 242° |
| 2026-04-28 13:50 | 48.83921 | 0.66588 | 25306 ft | 443 kts | 242° |
| 2026-04-28 13:50 | 48.82455 | 0.62454 | 25624 ft | 446 kts | 242° |
| 2026-04-28 13:50 | 48.80983 | 0.58302 | 25950 ft | 448 kts | 242° |
| 2026-04-28 13:51 | 48.79501 | 0.54137 | 26263 ft | 450 kts | 241° |
| 2026-04-28 13:51 | 48.77770 | 0.50180 | 26552 ft | 452 kts | 231° |
| 2026-04-28 13:51 | 48.75732 | 0.46539 | 26837 ft | 454 kts | 229° |
| 2026-04-28 13:51 | 48.73623 | 0.42962 | 27116 ft | 456 kts | 228° |
| 2026-04-28 13:52 | 48.71503 | 0.39375 | 27385 ft | 458 kts | 228° |
| 2026-04-28 13:52 | 48.69393 | 0.35749 | 27656 ft | 460 kts | 229° |
| 2026-04-28 13:52 | 48.67297 | 0.32092 | 27917 ft | 462 kts | 229° |
| 2026-04-28 13:52 | 48.65203 | 0.28403 | 28168 ft | 463 kts | 229° |
| 2026-04-28 13:53 | 48.63103 | 0.24691 | 28404 ft | 465 kts | 229° |
| 2026-04-28 13:53 | 48.61022 | 0.21016 | 28645 ft | 466 kts | 229° |
| 2026-04-28 13:53 | 48.58905 | 0.17291 | 28948 ft | 466 kts | 229° |
| 2026-04-28 13:53 | 48.56798 | 0.13581 | 29316 ft | 464 kts | 229° |
| 2026-04-28 13:54 | 48.54708 | 0.09875 | 29684 ft | 463 kts | 230° |
| 2026-04-28 13:54 | 48.52629 | 0.06173 | 30002 ft | 463 kts | 230° |
| 2026-04-28 13:54 | 48.50544 | 0.02462 | 30295 ft | 463 kts | 230° |
| 2026-04-28 13:54 | 48.48467 | -0.01228 | 30606 ft | 462 kts | 230° |
| 2026-04-28 13:55 | 48.46387 | -0.04916 | 30925 ft | 461 kts | 230° |
| 2026-04-28 13:55 | 48.44308 | -0.08594 | 31229 ft | 460 kts | 229° |
| 2026-04-28 13:55 | 48.42230 | -0.12265 | 31512 ft | 460 kts | 229° |
| 2026-04-28 13:55 | 48.40156 | -0.15924 | 31804 ft | 459 kts | 229° |
| 2026-04-28 13:56 | 48.38083 | -0.19577 | 32091 ft | 459 kts | 229° |
| 2026-04-28 13:56 | 48.36011 | -0.23220 | 32358 ft | 458 kts | 229° |
| 2026-04-28 13:56 | 48.33931 | -0.26866 | 32619 ft | 458 kts | 229° |
| 2026-04-28 13:56 | 48.31851 | -0.30474 | 32883 ft | 457 kts | 229° |
| 2026-04-28 13:57 | 48.29761 | -0.34075 | 33157 ft | 457 kts | 229° |
| 2026-04-28 13:57 | 48.27670 | -0.37669 | 33394 ft | 456 kts | 229° |
| 2026-04-28 13:57 | 48.25585 | -0.41249 | 33643 ft | 456 kts | 229° |
| 2026-04-28 13:57 | 48.23499 | -0.44830 | 33894 ft | 455 kts | 229° |
| 2026-04-28 13:58 | 48.21416 | -0.48403 | 34136 ft | 454 kts | 229° |
| 2026-04-28 13:58 | 48.19340 | -0.51963 | 34396 ft | 453 kts | 229° |
| 2026-04-28 13:58 | 48.17267 | -0.55514 | 34626 ft | 452 kts | 229° |
| 2026-04-28 13:58 | 48.15218 | -0.59019 | 34822 ft | 452 kts | 229° |
| 2026-04-28 13:59 | 48.13146 | -0.62560 | 34994 ft | 453 kts | 229° |
| 2026-04-28 13:59 | 48.11064 | -0.66113 | 34982 ft | 454 kts | 229° |
| 2026-04-28 13:59 | 48.06906 | -0.73193 | 35004 ft | 452 kts | 229° |
| 2026-04-28 14:00 | 48.02754 | -0.80245 | 34999 ft | 451 kts | 229° |
| 2026-04-28 14:00 | 47.98606 | -0.87270 | 34998 ft | 450 kts | 229° |
| 2026-04-28 14:01 | 47.94459 | -0.94276 | 35006 ft | 450 kts | 229° |
| 2026-04-28 14:01 | 47.90308 | -1.01270 | 35006 ft | 450 kts | 228° |
| 2026-04-28 14:02 | 47.86160 | -1.08242 | 35002 ft | 450 kts | 228° |
| 2026-04-28 14:02 | 47.82029 | -1.15165 | 34999 ft | 450 kts | 228° |
| 2026-04-28 14:03 | 47.77836 | -1.22176 | 34999 ft | 451 kts | 228° |
| 2026-04-28 14:03 | 47.73688 | -1.29093 | 34998 ft | 451 kts | 228° |
| 2026-04-28 14:04 | 47.69505 | -1.36050 | 35002 ft | 452 kts | 228° |
| 2026-04-28 14:04 | 47.65316 | -1.43001 | 34998 ft | 452 kts | 228° |
| 2026-04-28 14:05 | 47.61117 | -1.49952 | 35004 ft | 453 kts | 228° |
| 2026-04-28 14:05 | 47.56910 | -1.56890 | 35005 ft | 453 kts | 228° |
| 2026-04-28 14:06 | 47.52691 | -1.63824 | 34998 ft | 453 kts | 228° |
| 2026-04-28 14:06 | 47.48469 | -1.70750 | 35007 ft | 453 kts | 228° |
| 2026-04-28 14:07 | 47.44244 | -1.77664 | 34998 ft | 453 kts | 228° |
| 2026-04-28 14:07 | 47.40014 | -1.84573 | 34997 ft | 453 kts | 228° |
| 2026-04-28 14:08 | 47.35758 | -1.91420 | 34994 ft | 453 kts | 224° |
| 2026-04-28 14:08 | 47.30734 | -1.96851 | 35010 ft | 451 kts | 211° |
| 2026-04-28 14:09 | 47.25323 | -2.01569 | 34999 ft | 452 kts | 211° |
| 2026-04-28 14:09 | 47.19923 | -2.06295 | 34998 ft | 451 kts | 211° |
| 2026-04-28 14:10 | 47.14546 | -2.11061 | 34994 ft | 451 kts | 211° |
| 2026-04-28 14:10 | 47.09170 | -2.15839 | 34995 ft | 451 kts | 211° |
| 2026-04-28 14:11 | 47.03796 | -2.20605 | 34996 ft | 451 kts | 211° |
| 2026-04-28 14:11 | 46.98423 | -2.25356 | 35002 ft | 451 kts | 211° |
| 2026-04-28 14:12 | 46.93046 | -2.30099 | 35001 ft | 451 kts | 211° |
| 2026-04-28 14:12 | 46.87669 | -2.34831 | 35001 ft | 451 kts | 211° |
| 2026-04-28 14:13 | 46.84981 | -2.37188 | 35625 ft | 449 kts | 214° |
| 2026-04-28 14:13 | 46.82326 | -2.39515 | 35358 ft | 440 kts | 214° |
| 2026-04-28 14:13 | 46.79737 | -2.41784 | 35204 ft | 430 kts | 214° |
| 2026-04-28 14:13 | 46.77184 | -2.44022 | 35121 ft | 427 kts | 214° |
| 2026-04-28 14:14 | 46.72101 | -2.48478 | 35032 ft | 426 kts | 214° |
| 2026-04-28 14:14 | 46.67072 | -2.52875 | 35021 ft | 422 kts | 214° |
| 2026-04-28 14:15 | 46.62045 | -2.57259 | 35024 ft | 420 kts | 214° |
| 2026-04-28 14:15 | 46.57039 | -2.61614 | 35027 ft | 418 kts | 214° |
| 2026-04-28 14:16 | 46.52045 | -2.65950 | 35031 ft | 418 kts | 214° |
| 2026-04-28 14:16 | 46.47054 | -2.70274 | 35034 ft | 418 kts | 214° |
| 2026-04-28 14:17 | 46.42056 | -2.74594 | 35033 ft | 418 kts | 214° |
| 2026-04-28 14:17 | 46.37052 | -2.78911 | 35035 ft | 419 kts | 214° |
| 2026-04-28 14:18 | 46.32029 | -2.83236 | 35031 ft | 420 kts | 214° |
| 2026-04-28 14:18 | 46.26996 | -2.87558 | 35035 ft | 421 kts | 214° |
| 2026-04-28 14:19 | 46.21970 | -2.91911 | 35028 ft | 421 kts | 215° |
| 2026-04-28 14:19 | 46.16952 | -2.96287 | 35029 ft | 421 kts | 215° |
| 2026-04-28 14:20 | 46.11937 | -3.00652 | 35033 ft | 421 kts | 215° |
| 2026-04-28 14:20 | 46.06928 | -3.04997 | 35030 ft | 420 kts | 215° |
| 2026-04-28 14:21 | 46.01928 | -3.09322 | 35027 ft | 418 kts | 215° |
| 2026-04-28 14:21 | 45.96954 | -3.13616 | 35023 ft | 416 kts | 215° |
| 2026-04-28 14:22 | 45.92024 | -3.17863 | 35027 ft | 415 kts | 215° |
| 2026-04-28 14:22 | 45.87078 | -3.22115 | 35023 ft | 414 kts | 215° |
| 2026-04-28 14:23 | 45.82149 | -3.26344 | 35023 ft | 413 kts | 215° |
| 2026-04-28 14:23 | 45.77222 | -3.30562 | 35024 ft | 412 kts | 215° |
| 2026-04-28 14:24 | 45.72301 | -3.34767 | 35027 ft | 412 kts | 215° |
| 2026-04-28 14:24 | 45.67371 | -3.38971 | 35028 ft | 412 kts | 215° |
| 2026-04-28 14:25 | 45.62439 | -3.43167 | 35025 ft | 413 kts | 214° |
| 2026-04-28 14:25 | 45.57495 | -3.47365 | 35023 ft | 414 kts | 214° |
| 2026-04-28 14:26 | 45.52537 | -3.51566 | 35022 ft | 415 kts | 214° |
| 2026-04-28 14:26 | 45.47571 | -3.55764 | 35019 ft | 415 kts | 214° |
| 2026-04-28 14:27 | 45.42593 | -3.59964 | 35018 ft | 416 kts | 214° |
| 2026-04-28 14:27 | 45.37608 | -3.64162 | 35019 ft | 416 kts | 214° |
| 2026-04-28 14:28 | 45.33464 | -3.67644 | 35019 ft | 417 kts | 214° |
| 2026-04-28 14:28 | 45.28470 | -3.71834 | 35019 ft | 417 kts | 214° |
| 2026-04-28 14:29 | 45.23473 | -3.76017 | 35017 ft | 416 kts | 214° |
| 2026-04-28 14:29 | 45.18482 | -3.80185 | 35015 ft | 416 kts | 214° |
| 2026-04-28 14:30 | 45.13491 | -3.84346 | 35014 ft | 416 kts | 214° |
| 2026-04-28 14:30 | 45.08507 | -3.88492 | 35014 ft | 415 kts | 214° |
| 2026-04-28 14:31 | 45.03526 | -3.92628 | 35012 ft | 415 kts | 214° |
| 2026-04-28 14:31 | 44.98544 | -3.96755 | 35009 ft | 415 kts | 214° |
| 2026-04-28 14:32 | 44.93569 | -4.00870 | 35010 ft | 414 kts | 213° |
| 2026-04-28 14:32 | 44.88591 | -4.04978 | 35004 ft | 414 kts | 213° |
| 2026-04-28 14:33 | 44.83617 | -4.09074 | 35006 ft | 414 kts | 213° |
| 2026-04-28 14:33 | 44.78637 | -4.13167 | 35009 ft | 414 kts | 213° |
| 2026-04-28 14:34 | 44.71193 | -4.19270 | 35003 ft | 415 kts | 213° |
| 2026-04-28 14:35 | 44.66203 | -4.23351 | 34999 ft | 415 kts | 213° |
| 2026-04-28 14:35 | 44.61203 | -4.27432 | 34997 ft | 416 kts | 213° |
| 2026-04-28 14:36 | 44.56203 | -4.31505 | 34989 ft | 416 kts | 213° |
| 2026-04-28 14:36 | 44.51196 | -4.35575 | 34991 ft | 416 kts | 213° |
| 2026-04-28 14:37 | 44.46178 | -4.39648 | 34994 ft | 417 kts | 213° |
| 2026-04-28 14:37 | 44.41155 | -4.43716 | 34987 ft | 417 kts | 213° |
| 2026-04-28 14:38 | 44.36179 | -4.47879 | 34987 ft | 417 kts | 214° |
| 2026-04-28 14:38 | 44.31226 | -4.52099 | 34990 ft | 417 kts | 214° |
| 2026-04-28 14:39 | 44.26270 | -4.56309 | 34985 ft | 417 kts | 214° |
| 2026-04-28 14:39 | 44.21311 | -4.60500 | 34981 ft | 417 kts | 213° |
| 2026-04-28 14:40 | 44.16341 | -4.64685 | 34984 ft | 417 kts | 213° |
| 2026-04-28 14:40 | 44.11377 | -4.68855 | 34981 ft | 417 kts | 213° |
| 2026-04-28 14:41 | 44.06416 | -4.73015 | 34977 ft | 416 kts | 213° |
| 2026-04-28 14:41 | 44.01453 | -4.77167 | 34978 ft | 416 kts | 213° |
| 2026-04-28 14:42 | 43.96491 | -4.81311 | 34981 ft | 416 kts | 213° |
| 2026-04-28 14:42 | 43.91532 | -4.85444 | 34980 ft | 416 kts | 213° |
| 2026-04-28 14:43 | 43.86578 | -4.89566 | 34979 ft | 415 kts | 213° |
| 2026-04-28 14:43 | 43.81618 | -4.93683 | 34983 ft | 415 kts | 213° |
| 2026-04-28 14:44 | 43.76687 | -4.97770 | 34983 ft | 415 kts | 213° |
| 2026-04-28 14:44 | 43.71729 | -5.01870 | 34981 ft | 415 kts | 213° |
| 2026-04-28 14:45 | 43.66763 | -5.05969 | 34984 ft | 416 kts | 213° |
| 2026-04-28 14:45 | 43.61794 | -5.10062 | 34986 ft | 416 kts | 212° |
| 2026-04-28 14:46 | 43.56816 | -5.14155 | 34983 ft | 417 kts | 212° |
| 2026-04-28 14:46 | 43.51832 | -5.18245 | 34986 ft | 417 kts | 212° |
| 2026-04-28 14:47 | 43.46837 | -5.22335 | 34985 ft | 418 kts | 212° |
| 2026-04-28 14:47 | 43.41836 | -5.26423 | 34990 ft | 418 kts | 212° |
| 2026-04-28 14:48 | 43.36816 | -5.30518 | 34985 ft | 420 kts | 212° |
| 2026-04-28 14:48 | 43.31781 | -5.34619 | 34981 ft | 421 kts | 212° |
| 2026-04-28 14:49 | 43.26724 | -5.38728 | 34977 ft | 423 kts | 212° |
| 2026-04-28 14:49 | 43.21652 | -5.42842 | 34975 ft | 424 kts | 211° |
| 2026-04-28 14:50 | 43.16573 | -5.46952 | 34973 ft | 425 kts | 211° |
| 2026-04-28 14:50 | 43.11464 | -5.51081 | 34969 ft | 427 kts | 211° |
| 2026-04-28 14:51 | 43.06344 | -5.55208 | 34970 ft | 428 kts | 211° |
| 2026-04-28 14:51 | 43.01195 | -5.59352 | 34960 ft | 430 kts | 211° |
| 2026-04-28 14:52 | 42.96034 | -5.63497 | 34951 ft | 430 kts | 211° |
| 2026-04-28 14:52 | 42.90868 | -5.67637 | 34945 ft | 431 kts | 211° |
| 2026-04-28 14:53 | 42.85701 | -5.71770 | 34929 ft | 431 kts | 211° |
| 2026-04-28 14:53 | 42.80535 | -5.75895 | 34930 ft | 430 kts | 211° |
| 2026-04-28 14:54 | 42.75401 | -5.79986 | 34924 ft | 430 kts | 211° |
| 2026-04-28 14:54 | 42.70232 | -5.84097 | 34926 ft | 430 kts | 211° |
| 2026-04-28 14:55 | 42.65060 | -5.88202 | 34922 ft | 431 kts | 211° |
| 2026-04-28 14:55 | 42.59878 | -5.92307 | 34935 ft | 431 kts | 211° |
| 2026-04-28 14:56 | 42.54697 | -5.96404 | 34908 ft | 432 kts | 211° |
| 2026-04-28 14:56 | 42.49507 | -6.00500 | 34905 ft | 432 kts | 211° |
| 2026-04-28 14:57 | 42.44307 | -6.04595 | 34878 ft | 432 kts | 211° |
| 2026-04-28 14:57 | 42.39105 | -6.08685 | 34872 ft | 432 kts | 211° |
| 2026-04-28 14:58 | 42.33906 | -6.12763 | 34860 ft | 432 kts | 211° |
| 2026-04-28 14:58 | 42.28702 | -6.16838 | 34856 ft | 431 kts | 211° |
| 2026-04-28 14:59 | 42.23514 | -6.20893 | 34863 ft | 430 kts | 211° |
| 2026-04-28 14:59 | 42.18330 | -6.24937 | 34866 ft | 430 kts | 211° |
| 2026-04-28 15:00 | 42.13159 | -6.28963 | 34866 ft | 429 kts | 211° |
| 2026-04-28 15:00 | 42.08030 | -6.32949 | 34865 ft | 428 kts | 211° |
| 2026-04-28 15:01 | 42.02842 | -6.36973 | 34862 ft | 427 kts | 211° |
| 2026-04-28 15:01 | 41.97694 | -6.40958 | 34850 ft | 426 kts | 211° |
| 2026-04-28 15:02 | 41.92589 | -6.44903 | 34856 ft | 426 kts | 211° |
| 2026-04-28 15:02 | 41.87458 | -6.48861 | 34852 ft | 425 kts | 211° |
| 2026-04-28 15:03 | 41.82327 | -6.52812 | 34850 ft | 425 kts | 211° |
| 2026-04-28 15:03 | 41.77198 | -6.56755 | 34859 ft | 425 kts | 210° |
| 2026-04-28 15:04 | 41.72068 | -6.60690 | 34843 ft | 425 kts | 210° |
| 2026-04-28 15:04 | 41.67154 | -6.65068 | 34852 ft | 424 kts | 217° |
| 2026-04-28 15:05 | 41.62476 | -6.69884 | 34850 ft | 424 kts | 218° |
| 2026-04-28 15:05 | 41.57795 | -6.74705 | 34847 ft | 425 kts | 218° |
| 2026-04-28 15:06 | 41.53098 | -6.79502 | 34844 ft | 425 kts | 217° |
| 2026-04-28 15:06 | 41.48386 | -6.84286 | 34846 ft | 426 kts | 217° |
| 2026-04-28 15:07 | 41.43660 | -6.89069 | 34842 ft | 426 kts | 217° |
| 2026-04-28 15:07 | 41.38930 | -6.93847 | 34843 ft | 427 kts | 217° |
| 2026-04-28 15:08 | 41.34224 | -6.98593 | 34843 ft | 427 kts | 217° |
| 2026-04-28 15:08 | 41.29479 | -7.03368 | 34839 ft | 427 kts | 217° |
| 2026-04-28 15:09 | 41.24733 | -7.08137 | 34839 ft | 428 kts | 217° |
| 2026-04-28 15:09 | 41.19980 | -7.12903 | 34842 ft | 428 kts | 217° |
| 2026-04-28 15:10 | 41.15234 | -7.17654 | 34845 ft | 427 kts | 217° |
| 2026-04-28 15:10 | 41.10490 | -7.22394 | 34848 ft | 427 kts | 217° |
| 2026-04-28 15:11 | 41.05742 | -7.27128 | 34846 ft | 427 kts | 217° |
| 2026-04-28 15:11 | 41.00987 | -7.31862 | 34848 ft | 427 kts | 217° |
| 2026-04-28 15:12 | 40.97004 | -7.35820 | 34848 ft | 427 kts | 217° |
| 2026-04-28 15:12 | 40.92248 | -7.40538 | 34856 ft | 427 kts | 216° |
| 2026-04-28 15:13 | 40.87516 | -7.45224 | 34856 ft | 428 kts | 216° |
| 2026-04-28 15:13 | 40.82744 | -7.49940 | 34865 ft | 429 kts | 216° |
| 2026-04-28 15:14 | 40.77965 | -7.54656 | 34872 ft | 429 kts | 216° |
| 2026-04-28 15:14 | 40.73180 | -7.59368 | 34866 ft | 429 kts | 216° |
| 2026-04-28 15:15 | 40.68391 | -7.64075 | 34875 ft | 430 kts | 216° |
| 2026-04-28 15:15 | 40.63597 | -7.68779 | 34872 ft | 429 kts | 216° |
| 2026-04-28 15:16 | 40.58846 | -7.73432 | 34858 ft | 422 kts | 216° |
| 2026-04-28 15:16 | 40.54153 | -7.78020 | 34824 ft | 419 kts | 216° |
| 2026-04-28 15:16 | 40.51807 | -7.80310 | 34493 ft | 418 kts | 216° |
| 2026-04-28 15:17 | 40.49488 | -7.82573 | 34116 ft | 413 kts | 216° |
| 2026-04-28 15:17 | 40.47187 | -7.84816 | 33708 ft | 409 kts | 215° |
| 2026-04-28 15:17 | 40.44908 | -7.87035 | 33272 ft | 406 kts | 215° |
| 2026-04-28 15:17 | 40.42649 | -7.89232 | 32847 ft | 402 kts | 216° |
| 2026-04-28 15:18 | 40.40443 | -7.91377 | 32455 ft | 398 kts | 216° |
| 2026-04-28 15:18 | 40.38198 | -7.93557 | 32042 ft | 395 kts | 216° |
| 2026-04-28 15:18 | 40.36031 | -7.95660 | 31650 ft | 391 kts | 216° |
| 2026-04-28 15:18 | 40.33850 | -7.97775 | 31258 ft | 388 kts | 216° |
| 2026-04-28 15:19 | 40.31693 | -7.99865 | 30875 ft | 385 kts | 216° |
| 2026-04-28 15:19 | 40.29544 | -8.01946 | 30493 ft | 382 kts | 216° |
| 2026-04-28 15:19 | 40.27411 | -8.04008 | 30112 ft | 379 kts | 216° |
| 2026-04-28 15:19 | 40.25296 | -8.06052 | 29701 ft | 377 kts | 216° |
| 2026-04-28 15:20 | 40.23195 | -8.08082 | 29266 ft | 374 kts | 216° |
| 2026-04-28 15:20 | 40.21115 | -8.10090 | 28876 ft | 369 kts | 216° |
| 2026-04-28 15:20 | 40.19056 | -8.12076 | 28460 ft | 366 kts | 216° |
| 2026-04-28 15:20 | 40.17011 | -8.14046 | 28077 ft | 363 kts | 216° |
| 2026-04-28 15:21 | 40.14979 | -8.16003 | 27676 ft | 361 kts | 215° |
| 2026-04-28 15:21 | 40.12959 | -8.17946 | 27284 ft | 362 kts | 215° |
| 2026-04-28 15:21 | 40.10923 | -8.19903 | 26903 ft | 364 kts | 215° |
| 2026-04-28 15:21 | 40.08886 | -8.21862 | 26506 ft | 362 kts | 215° |
| 2026-04-28 15:22 | 40.06867 | -8.23801 | 26116 ft | 359 kts | 215° |
| 2026-04-28 15:22 | 40.04859 | -8.25727 | 25720 ft | 357 kts | 215° |
| 2026-04-28 15:22 | 40.02863 | -8.27640 | 25347 ft | 355 kts | 215° |
| 2026-04-28 15:22 | 40.00838 | -8.29459 | 24955 ft | 352 kts | 206° |
| 2026-04-28 15:23 | 39.98562 | -8.30516 | 24679 ft | 346 kts | 191° |
| 2026-04-28 15:23 | 39.96194 | -8.30965 | 24442 ft | 342 kts | 187° |
| 2026-04-28 15:23 | 39.93828 | -8.31300 | 24193 ft | 343 kts | 186° |
| 2026-04-28 15:23 | 39.91437 | -8.31619 | 23952 ft | 348 kts | 186° |
| 2026-04-28 15:24 | 39.89011 | -8.31955 | 23687 ft | 351 kts | 187° |
| 2026-04-28 15:24 | 39.86586 | -8.32304 | 23428 ft | 349 kts | 187° |
| 2026-04-28 15:24 | 39.84185 | -8.32661 | 23137 ft | 347 kts | 187° |
| 2026-04-28 15:24 | 39.81795 | -8.33023 | 22865 ft | 345 kts | 187° |
| 2026-04-28 15:25 | 39.79419 | -8.33386 | 22602 ft | 343 kts | 187° |
| 2026-04-28 15:25 | 39.77053 | -8.33748 | 22350 ft | 341 kts | 187° |
| 2026-04-28 15:25 | 39.74722 | -8.34231 | 22068 ft | 338 kts | 195° |
| 2026-04-28 15:25 | 39.72540 | -8.35359 | 21661 ft | 338 kts | 207° |
| 2026-04-28 15:26 | 39.70560 | -8.37016 | 21190 ft | 340 kts | 217° |
| 2026-04-28 15:26 | 39.68710 | -8.38928 | 20742 ft | 340 kts | 217° |
| 2026-04-28 15:26 | 39.66874 | -8.40858 | 20366 ft | 339 kts | 218° |
| 2026-04-28 15:26 | 39.65051 | -8.42778 | 20006 ft | 336 kts | 218° |
| 2026-04-28 15:27 | 39.63229 | -8.44689 | 19536 ft | 338 kts | 218° |
| 2026-04-28 15:27 | 39.61393 | -8.46608 | 19061 ft | 340 kts | 218° |
| 2026-04-28 15:27 | 39.59546 | -8.48530 | 18582 ft | 342 kts | 218° |
| 2026-04-28 15:27 | 39.57679 | -8.50469 | 18037 ft | 346 kts | 218° |
| 2026-04-28 15:28 | 39.55793 | -8.52424 | 17432 ft | 349 kts | 218° |
| 2026-04-28 15:28 | 39.53900 | -8.54383 | 16820 ft | 346 kts | 218° |
| 2026-04-28 15:28 | 39.52030 | -8.56317 | 16238 ft | 341 kts | 218° |
| 2026-04-28 15:28 | 39.50187 | -8.58221 | 15659 ft | 336 kts | 218° |
| 2026-04-28 15:29 | 39.48373 | -8.60094 | 15091 ft | 332 kts | 218° |
| 2026-04-28 15:29 | 39.46578 | -8.61945 | 14529 ft | 328 kts | 218° |
| 2026-04-28 15:29 | 39.44805 | -8.63772 | 13982 ft | 325 kts | 218° |
| 2026-04-28 15:29 | 39.43048 | -8.65581 | 13448 ft | 329 kts | 218° |
| 2026-04-28 15:30 | 39.41226 | -8.67455 | 12839 ft | 332 kts | 218° |
| 2026-04-28 15:30 | 39.39410 | -8.69322 | 12257 ft | 335 kts | 218° |
| 2026-04-28 15:30 | 39.37601 | -8.71182 | 11686 ft | 338 kts | 218° |
| 2026-04-28 15:30 | 39.35758 | -8.73075 | 11120 ft | 340 kts | 218° |
| 2026-04-28 15:31 | 39.33934 | -8.74947 | 10833 ft | 326 kts | 218° |
| 2026-04-28 15:31 | 39.32198 | -8.76728 | 10564 ft | 311 kts | 218° |
| 2026-04-28 15:31 | 39.30536 | -8.78431 | 10317 ft | 298 kts | 218° |
| 2026-04-28 15:31 | 39.28923 | -8.80083 | 10079 ft | 294 kts | 218° |
| 2026-04-28 15:32 | 39.27330 | -8.81714 | 9846 ft | 290 kts | 218° |
| 2026-04-28 15:32 | 39.25765 | -8.83315 | 9577 ft | 282 kts | 218° |
| 2026-04-28 15:32 | 39.24254 | -8.84860 | 9311 ft | 273 kts | 218° |
| 2026-04-28 15:32 | 39.22771 | -8.86376 | 9058 ft | 271 kts | 218° |
| 2026-04-28 15:33 | 39.21300 | -8.87879 | 8795 ft | 269 kts | 218° |
| 2026-04-28 15:33 | 39.19844 | -8.89366 | 8583 ft | 266 kts | 218° |
| 2026-04-28 15:33 | 39.18383 | -8.90856 | 8286 ft | 269 kts | 218° |
| 2026-04-28 15:33 | 39.16911 | -8.92357 | 7981 ft | 271 kts | 218° |
| 2026-04-28 15:34 | 39.15432 | -8.93865 | 7652 ft | 272 kts | 218° |
| 2026-04-28 15:34 | 39.13946 | -8.95379 | 7326 ft | 272 kts | 218° |
| 2026-04-28 15:34 | 39.12459 | -8.96894 | 7012 ft | 273 kts | 218° |
| 2026-04-28 15:34 | 39.10983 | -8.98396 | 6683 ft | 268 kts | 218° |
| 2026-04-28 15:35 | 39.09554 | -8.99850 | 6374 ft | 262 kts | 218° |
| 2026-04-28 15:35 | 39.06757 | -9.02693 | 5751 ft | 250 kts | 218° |
| 2026-04-28 15:35 | 39.05404 | -9.04065 | 5457 ft | 245 kts | 218° |
| 2026-04-28 15:36 | 39.04082 | -9.05404 | 5171 ft | 239 kts | 217° |
| 2026-04-28 15:36 | 39.02609 | -9.06242 | 4909 ft | 228 kts | 185° |
| 2026-04-28 15:36 | 39.01095 | -9.06051 | 4753 ft | 213 kts | 163° |
| 2026-04-28 15:36 | 38.99735 | -9.05391 | 4509 ft | 206 kts | 158° |
| 2026-04-28 15:37 | 38.98425 | -9.04681 | 4280 ft | 202 kts | 157° |
| 2026-04-28 15:37 | 38.97127 | -9.04073 | 4022 ft | 197 kts | 174° |
| 2026-04-28 15:37 | 38.95848 | -9.04397 | 3824 ft | 182 kts | 200° |
| 2026-04-28 15:37 | 38.95054 | -9.04730 | 3632 ft | 179 kts | 196° |
| 2026-04-28 15:38 | 38.93520 | -9.05378 | 3348 ft | 170 kts | 200° |
| 2026-04-28 15:38 | 38.92426 | -9.05931 | 3142 ft | 169 kts | 202° |
| 2026-04-28 15:38 | 38.91338 | -9.06506 | 2925 ft | 169 kts | 202° |
| 2026-04-28 15:38 | 38.90263 | -9.07082 | 2687 ft | 164 kts | 203° |
| 2026-04-28 15:39 | 38.89229 | -9.07638 | 2499 ft | 160 kts | 202° |
| 2026-04-28 15:39 | 38.88183 | -9.08199 | 2272 ft | 165 kts | 202° |
| 2026-04-28 15:39 | 38.87130 | -9.08763 | 2046 ft | 161 kts | 203° |
| 2026-04-28 15:39 | 38.86126 | -9.09302 | 1869 ft | 151 kts | 204° |
| 2026-04-28 15:40 | 38.85175 | -9.09813 | 1645 ft | 144 kts | 204° |
| 2026-04-28 15:40 | 38.84275 | -9.10295 | 1488 ft | 139 kts | 206° |
| 2026-04-28 15:40 | 38.83356 | -9.10791 | 1256 ft | 144 kts | 205° |
| 2026-04-28 15:40 | 38.82435 | -9.11284 | 1079 ft | 144 kts | 204° |
| 2026-04-28 15:41 | 38.81518 | -9.11769 | 881 ft | 142 kts | 201° |
| 2026-04-28 15:41 | 38.80611 | -9.12263 | 681 ft | 142 kts | 205° |
| 2026-04-28 15:41 | 38.79725 | -9.12746 | 504 ft | 136 kts | 202° |
| 2026-04-28 15:41 | 38.78875 | -9.13196 | 361 ft | 127 kts | 202° |
| 2026-04-28 15:42 | 38.78198 | -9.13560 | 369 ft | 67 kts | 202° |
| 2026-04-28 15:42 | 38.77899 | -9.13717 | 367 ft | 32 kts | 199° |
| 2026-04-28 15:42 | 38.77739 | -9.13758 | 363 ft | 17 kts | 183° |
| 2026-04-28 15:42 | 38.77631 | -9.13758 | 362 ft | 11 kts | 178° |
| 2026-04-28 15:43 | 38.77554 | -9.13756 | 366 ft | 11 kts | 179° |
| 2026-04-28 15:43 | 38.77486 | -9.13750 | 361 ft | 7 kts | 159° |
| 2026-04-28 15:43 | 38.77429 | -9.13744 | 356 ft | 9 kts | 188° |
| 2026-04-28 15:43 | 38.77363 | -9.13764 | 358 ft | 10 kts | 198° |
| 2026-04-28 15:44 | 38.77294 | -9.13768 | 356 ft | 10 kts | 147° |
| 2026-04-28 15:44 | 38.77273 | -9.13684 | 350 ft | 10 kts | 90° |
| 2026-04-28 15:44 | 38.77284 | -9.13594 | 348 ft | 11 kts | 80° |
| 2026-04-28 15:44 | 38.77298 | -9.13492 | 349 ft | 13 kts | 80° |
| 2026-04-28 15:45 | 38.77316 | -9.13371 | 339 ft | 15 kts | 78° |
| 2026-04-28 15:45 | 38.77315 | -9.13278 | 335 ft | 9 kts | 130° |
| 2026-04-28 15:45 | 38.77259 | -9.13243 | 337 ft | 9 kts | 165° |
| 2026-04-28 15:45 | 38.77199 | -9.13225 | 332 ft | 9 kts | 168° |
| 2026-04-28 15:46 | 38.77139 | -9.13209 | 337 ft | 9 kts | 168° |
| 2026-04-28 15:46 | 38.77082 | -9.13194 | 337 ft | 8 kts | 167° |
| 2026-04-28 15:46 | 38.77027 | -9.13179 | 337 ft | 8 kts | 168° |
| 2026-04-28 15:46 | 38.76973 | -9.13164 | 338 ft | 8 kts | 168° |
| 2026-04-28 15:47 | 38.76931 | -9.13131 | 336 ft | 8 kts | 104° |
| 2026-04-28 15:47 | 38.76937 | -9.13069 | 334 ft | 0 kts | 78° |